Time;durP1;ratioP1;P1;durP2;ratioP2;P2;SDS_P1;SDS_P2;PMS_P1;PMS_P2;Temp;Humidity;BMP_temperature;BMP_pressure;BME280_temperature;BME280_humidity;BME280_pressure;Samples;Min_cycle;Max_cycle;Signal;HPM_P1;HPM_P2
2022/10/04 00:00:42;;;;;;;14.33;9.30;;;13.20;85.60;;;;;;4976706;28;20271;-86
2022/10/04 00:03:07;;;;;;;12.00;9.30;;;13.20;88.60;;;;;;4977060;28;20170;-88
2022/10/04 00:05:36;;;;;;;13.17;9.47;;;13.10;89.00;;;;;;4977773;28;20258;-85
2022/10/04 00:08:22;;;;;;;13.03;9.43;;;13.20;91.00;;;;;;4977644;28;20186;-85
2022/10/04 00:10:48;;;;;;;11.93;9.33;;;13.20;90.90;;;;;;4982690;28;20228;-86
2022/10/04 00:13:25;;;;;;;13.17;9.70;;;13.20;89.70;;;;;;4990836;28;20171;-86
2022/10/04 00:15:52;;;;;;;15.63;9.63;;;13.20;90.40;;;;;;4991390;28;20215;-86
2022/10/04 00:18:27;;;;;;;14.87;9.77;;;13.10;90.50;;;;;;4980327;28;20216;-87
2022/10/04 00:20:53;;;;;;;12.60;9.93;;;13.20;90.50;;;;;;4979543;28;20216;-85
2022/10/04 00:23:40;;;;;;;15.23;10.67;;;13.20;90.20;;;;;;4979009;28;20182;-88
2022/10/04 00:26:14;;;;;;;15.63;9.67;;;13.30;89.10;;;;;;4983070;28;20173;-89
2022/10/04 00:28:45;;;;;;;13.03;9.90;;;13.30;87.60;;;;;;4981147;28;20177;-90
2022/10/04 00:31:21;;;;;;;15.43;11.10;;;13.50;85.50;;;;;;4979475;28;20190;-88
2022/10/04 00:34:15;;;;;;;15.77;10.50;;;13.70;74.30;;;;;;4977482;28;20294;-89
2022/10/04 00:36:54;;;;;;;12.77;9.83;;;13.70;67.30;;;;;;4981657;28;20183;-91
2022/10/04 00:39:42;;;;;;;16.07;10.57;;;13.50;71.20;;;;;;4989387;28;20201;-85
2022/10/04 00:42:31;;;;;;;14.60;10.20;;;13.30;77.50;;;;;;4980031;28;20173;-85
2022/10/04 00:45:14;;;;;;;15.83;9.77;;;13.30;82.40;;;;;;4978282;28;20188;-85
2022/10/04 00:48:10;;;;;;;13.90;9.87;;;13.30;83.90;;;;;;4978882;28;20189;-86
2022/10/04 00:50:50;;;;;;;14.57;10.13;;;13.20;83.40;;;;;;4983428;28;20165;-89
2022/10/04 00:53:28;;;;;;;14.50;10.13;;;13.20;84.20;;;;;;4984118;28;20177;-83
2022/10/04 00:56:00;;;;;;;15.43;10.37;;;13.40;79.00;;;;;;4977103;28;20193;-85
2022/10/04 00:58:34;;;;;;;14.83;10.40;;;13.50;72.80;;;;;;4976080;28;20185;-86
2022/10/04 01:01:01;;;;;;;12.70;10.07;;;13.20;74.70;;;;;;4975553;28;20170;-85
2022/10/04 01:03:39;;;;;;;16.27;10.30;;;13.10;81.70;;;;;;4975578;28;20266;-86
2022/10/04 01:06:10;;;;;;;13.13;9.57;;;13.10;86.70;;;;;;4982905;28;20518;-85
2022/10/04 01:08:51;;;;;;;16.10;10.43;;;13.00;89.70;;;;;;4977045;28;20236;-84
2022/10/04 01:11:25;;;;;;;12.67;9.47;;;12.90;90.30;;;;;;4974563;28;20270;-86
2022/10/04 01:14:10;;;;;;;12.63;10.37;;;12.90;91.50;;;;;;4975726;28;20203;-90
2022/10/04 01:16:37;;;;;;;13.17;9.77;;;13.10;91.70;;;;;;4977068;28;20632;-90
2022/10/04 01:19:25;;;;;;;16.43;10.77;;;13.00;91.50;;;;;;4963118;28;20187;-92
2022/10/04 01:22:10;;;;;;;14.87;10.40;;;13.10;91.40;;;;;;4996767;28;20240;-88
2022/10/04 01:24:43;;;;;;;15.90;11.17;;;13.10;88.20;;;;;;4986856;28;20738;-85
2022/10/04 01:27:31;;;;;;;13.63;10.80;;;13.40;81.60;;;;;;4975664;28;20263;-90
2022/10/04 01:30:00;;;;;;;16.90;11.07;;;13.20;80.00;;;;;;4976114;28;20172;-86
2022/10/04 01:32:27;;;;;;;14.60;11.53;;;13.20;81.80;;;;;;4975191;28;20176;-85
2022/10/04 01:34:55;;;;;;;21.57;11.53;;;13.10;82.40;;;;;;4976906;28;20211;-85
2022/10/04 01:37:20;;;;;;;16.17;11.47;;;13.00;84.00;;;;;;4979183;28;20199;-86
2022/10/04 01:39:46;;;;;;;20.43;11.90;;;12.90;88.70;;;;;;4982266;28;20183;-84
2022/10/04 01:42:32;;;;;;;15.23;10.57;;;12.80;91.90;;;;;;4995543;28;20231;-86
2022/10/04 01:45:12;;;;;;;11.90;10.00;;;12.80;93.10;;;;;;4994070;28;20211;-85
2022/10/04 01:47:46;;;;;;;14.33;10.50;;;12.70;94.10;;;;;;4992587;28;20190;-86
2022/10/04 01:50:31;;;;;;;16.13;10.70;;;12.80;94.70;;;;;;4995917;28;20152;-85
2022/10/04 01:53:39;;;;;;;17.90;11.10;;;12.90;92.80;;;;;;4997420;28;20210;-85
2022/10/04 01:56:26;;;;;;;15.43;11.33;;;13.00;89.50;;;;;;4981236;28;20183;-85
2022/10/04 01:59:05;;;;;;;16.50;11.93;;;13.10;85.50;;;;;;4978791;28;20215;-84
2022/10/04 02:01:54;;;;;;;18.27;10.47;;;13.00;85.80;;;;;;4979892;28;20207;-84
2022/10/04 02:04:42;;;;;;;16.80;10.70;;;12.90;90.10;;;;;;4976647;28;20646;-84
2022/10/04 02:07:14;;;;;;;15.97;10.10;;;12.80;92.30;;;;;;4978170;28;20195;-85
2022/10/04 02:09:46;;;;;;;13.43;10.37;;;12.60;93.90;;;;;;4977863;28;20176;-85
2022/10/04 02:12:18;;;;;;;14.77;10.30;;;12.60;95.80;;;;;;4975391;28;20176;-85
2022/10/04 02:14:52;;;;;;;12.77;10.00;;;12.50;96.50;;;;;;4974723;28;20669;-86
2022/10/04 02:17:36;;;;;;;17.13;10.87;;;12.60;96.20;;;;;;4974597;28;20169;-87
2022/10/04 02:20:08;;;;;;;15.87;10.03;;;12.70;95.20;;;;;;4974030;28;20708;-87
2022/10/04 02:22:34;;;;;;;14.57;9.83;;;12.60;95.60;;;;;;4974034;28;20567;-86
2022/10/04 02:25:01;;;;;;;15.13;10.43;;;12.50;95.60;;;;;;4976463;28;20180;-85
2022/10/04 02:27:28;;;;;;;13.90;9.93;;;12.50;95.80;;;;;;4977248;28;20175;-86
2022/10/04 02:30:04;;;;;;;14.63;10.07;;;12.60;96.60;;;;;;4977015;28;20535;-86
2022/10/04 02:35:17;;;;;;;14.80;10.03;;;12.50;96.10;;;;;;4982696;28;20759;-91
2022/10/04 02:37:43;;;;;;;14.07;10.23;;;12.70;93.90;;;;;;4982190;28;20664;-90
2022/10/04 02:40:16;;;;;;;15.00;10.40;;;12.70;92.10;;;;;;4985867;28;20231;-87
2022/10/04 02:42:58;;;;;;;15.80;11.10;;;12.70;90.10;;;;;;4985485;28;20196;-90
2022/10/04 02:45:45;;;;;;;17.80;10.70;;;12.80;86.70;;;;;;5000130;28;20182;-89
2022/10/04 02:49:01;;;;;;;14.27;10.00;;;12.90;82.20;;;;;;5000710;28;20156;-89
2022/10/04 02:51:37;;;;;;;15.33;11.10;;;12.80;86.70;;;;;;5004655;28;20187;-87
2022/10/04 02:54:35;;;;;;;16.10;10.60;;;12.70;88.60;;;;;;4999081;28;20199;-89
2022/10/04 02:57:04;;;;;;;12.03;9.47;;;12.60;88.40;;;;;;4994944;28;20186;-91
2022/10/04 02:59:33;;;;;;;17.77;10.87;;;12.60;90.00;;;;;;4983097;28;20256;-92
2022/10/04 03:02:22;;;;;;;12.17;10.07;;;12.50;91.50;;;;;;4980866;28;20164;-85
2022/10/04 03:04:50;;;;;;;15.70;10.13;;;12.50;92.60;;;;;;4979026;28;20656;-86
2022/10/04 03:07:17;;;;;;;15.40;10.23;;;12.50;93.50;;;;;;4979761;28;20203;-85
2022/10/04 03:09:44;;;;;;;14.40;10.27;;;12.60;93.70;;;;;;4983126;28;20188;-85
2022/10/04 03:12:11;;;;;;;15.93;9.73;;;12.50;93.60;;;;;;4982207;28;20234;-85
2022/10/04 03:14:39;;;;;;;14.40;10.20;;;12.70;94.00;;;;;;4978863;28;20208;-85
2022/10/04 03:17:06;;;;;;;14.33;10.60;;;12.60;93.40;;;;;;4978086;28;20653;-86
2022/10/04 03:19:33;;;;;;;15.53;10.07;;;12.50;93.30;;;;;;4982136;28;20226;-85
2022/10/04 03:22:09;;;;;;;13.30;9.73;;;12.50;93.40;;;;;;4978727;28;20164;-85
2022/10/04 03:24:46;;;;;;;14.40;9.53;;;12.40;93.70;;;;;;4979139;28;20172;-85
2022/10/04 03:27:23;;;;;;;14.20;9.60;;;12.30;94.00;;;;;;4980022;28;20199;-87
2022/10/04 03:29:49;;;;;;;17.80;9.80;;;12.40;94.80;;;;;;4992716;28;20169;-84
2022/10/04 03:32:17;;;;;;;13.77;9.60;;;12.40;93.80;;;;;;4983706;28;20192;-86
2022/10/04 03:35:04;;;;;;;12.37;10.10;;;12.40;92.70;;;;;;4983754;28;20386;-85
2022/10/04 03:37:36;;;;;;;12.10;9.10;;;12.40;92.90;;;;;;4980915;28;20590;-87
2022/10/04 03:40:08;;;;;;;12.47;9.17;;;12.40;92.90;;;;;;4977976;28;20266;-89
2022/10/04 03:42:36;;;;;;;13.97;9.70;;;12.30;94.00;;;;;;4977141;28;20163;-87
2022/10/04 03:45:17;;;;;;;14.00;8.87;;;12.30;94.80;;;;;;4977148;28;20226;-87
2022/10/04 03:47:47;;;;;;;13.83;9.27;;;12.30;94.60;;;;;;4976680;28;20223;-89
2022/10/04 03:50:18;;;;;;;12.73;9.33;;;12.30;93.90;;;;;;4976946;28;20182;-85
2022/10/04 03:52:55;;;;;;;17.43;10.47;;;12.50;91.20;;;;;;4976888;28;20168;-85
2022/10/04 03:55:27;;;;;;;12.83;9.70;;;12.60;86.50;;;;;;4976306;28;20235;-91
2022/10/04 03:57:52;;;;;;;17.63;10.07;;;12.60;84.00;;;;;;4976782;28;20172;-86
2022/10/04 04:00:18;;;;;;;14.27;10.13;;;12.60;84.40;;;;;;4976433;28;20175;-86
2022/10/04 04:03:00;;;;;;;15.13;9.53;;;12.50;86.20;;;;;;4979534;28;20617;-88
2022/10/04 04:05:45;;;;;;;15.40;10.20;;;12.50;87.60;;;;;;4981666;28;20182;-91
2022/10/04 04:08:18;;;;;;;14.67;9.70;;;12.30;88.80;;;;;;4980595;28;20188;-90
2022/10/04 04:10:56;;;;;;;13.37;9.37;;;12.30;89.10;;;;;;4980552;28;20176;-89
2022/10/04 04:13:24;;;;;;;15.57;9.87;;;12.10;91.80;;;;;;4971972;28;20193;-89
2022/10/04 04:15:53;;;;;;;12.50;9.03;;;11.90;95.60;;;;;;4985734;28;20204;-89
2022/10/04 04:18:24;;;;;;;13.13;8.73;;;11.90;97.60;;;;;;4978743;28;20194;-87
2022/10/04 04:20:55;;;;;;;15.87;9.73;;;11.90;98.40;;;;;;4978062;28;20171;-90
2022/10/04 04:23:31;;;;;;;12.37;9.27;;;12.00;96.90;;;;;;4963133;28;20262;-90
2022/10/04 04:26:14;;;;;;;16.97;10.00;;;12.10;95.90;;;;;;4978457;28;20246;-91
2022/10/04 04:29:09;;;;;;;11.87;8.93;;;12.10;94.20;;;;;;4977450;28;20179;-91
2022/10/04 04:31:35;;;;;;;13.37;9.37;;;12.10;94.10;;;;;;4987998;28;20199;-89
2022/10/04 04:34:05;;;;;;;16.53;10.00;;;12.10;94.30;;;;;;4993434;28;20227;-89
2022/10/04 04:36:40;;;;;;;12.73;8.70;;;12.10;94.20;;;;;;4996211;28;20163;-86
2022/10/04 04:39:33;;;;;;;16.20;8.87;;;11.90;95.10;;;;;;4991732;28;20183;-91
2022/10/04 04:42:01;;;;;;;12.93;9.00;;;11.90;96.20;;;;;;4981963;28;20176;-87
2022/10/04 04:44:27;;;;;;;14.87;9.90;;;12.10;94.50;;;;;;4967584;28;20203;-91
2022/10/04 04:46:55;;;;;;;15.27;8.77;;;12.10;94.20;;;;;;4984140;28;20171;-90
2022/10/04 04:49:22;;;;;;;14.73;9.27;;;11.80;95.50;;;;;;4981942;28;20183;-93
2022/10/04 04:51:51;;;;;;;12.70;8.50;;;11.70;97.80;;;;;;4979108;28;20245;-92
2022/10/04 04:54:23;;;;;;;14.90;9.30;;;11.60;99.50;;;;;;4961143;28;20239;-90
2022/10/04 04:56:52;;;;;;;12.87;8.77;;;11.50;99.90;;;;;;4960952;28;20252;-88
2022/10/04 04:59:20;;;;;;;13.97;9.07;;;11.50;99.90;;;;;;4976918;28;20249;-90
2022/10/04 05:01:49;;;;;;;15.53;10.07;;;11.40;99.90;;;;;;4959991;28;20180;-87
2022/10/04 05:04:17;;;;;;;16.17;9.37;;;11.40;99.90;;;;;;4976573;28;20164;-87
2022/10/04 05:06:45;;;;;;;17.20;9.27;;;11.30;99.90;;;;;;4990089;28;20175;-89
2022/10/04 05:09:44;;;;;;;16.67;11.20;;;11.30;99.90;;;;;;4991030;28;20172;-88
2022/10/04 05:12:17;;;;;;;13.13;8.67;;;11.40;99.90;;;;;;4976227;28;20202;-86
2022/10/04 05:14:52;;;;;;;15.10;9.50;;;11.30;99.90;;;;;;4974607;28;20238;-87
2022/10/04 05:17:23;;;;;;;16.83;9.37;;;11.30;99.90;;;;;;4975571;28;20247;-91
2022/10/04 05:19:51;;;;;;;14.80;9.50;;;11.20;99.90;;;;;;4975853;28;20203;-92
2022/10/04 05:22:21;;;;;;;14.83;9.50;;;11.30;99.90;;;;;;4976012;28;20219;-93
2022/10/04 05:24:51;;;;;;;14.67;9.57;;;11.20;99.90;;;;;;4975677;28;20172;-92
2022/10/04 05:27:24;;;;;;;14.73;9.53;;;11.30;99.90;;;;;;4978884;28;20243;-89
2022/10/04 05:29:55;;;;;;;18.20;9.10;;;11.20;99.90;;;;;;4992012;28;20174;-90
2022/10/04 05:32:46;;;;;;;15.83;9.23;;;11.30;99.90;;;;;;4993719;28;20186;-87
2022/10/04 05:35:19;;;;;;;14.77;9.87;;;11.30;99.90;;;;;;4972687;28;20219;-89
2022/10/04 05:38:03;;;;;;;16.10;10.33;;;11.50;99.90;;;;;;4983024;28;20641;-89
2022/10/04 05:40:50;;;;;;;18.60;10.77;;;11.70;99.90;;;;;;4969143;28;20183;-89
2022/10/04 05:43:37;;;;;;;15.60;9.50;;;11.90;99.90;;;;;;4984628;28;20191;-92
2022/10/04 05:46:23;;;;;;;21.70;10.43;;;12.00;95.60;;;;;;4971517;28;20212;-86
2022/10/04 05:49:01;;;;;;;13.60;9.30;;;12.00;92.30;;;;;;4991752;28;20183;-90
2022/10/04 05:51:36;;;;;;;16.67;9.83;;;11.90;92.00;;;;;;4980985;28;20187;-85
2022/10/04 05:54:08;;;;;;;13.87;8.70;;;11.80;92.30;;;;;;4961545;28;20191;-86
2022/10/04 05:57:28;;;;;;;16.03;8.60;;;11.70;93.10;;;;;;4961510;29;20203;-92
2022/10/04 06:00:08;;;;;;;15.80;8.70;;;11.60;95.30;;;;;;4960118;28;20196;-88
2022/10/04 06:02:43;;;;;;;14.30;8.90;;;11.50;95.60;;;;;;4952865;29;20736;-89
2022/10/04 06:05:34;;;;;;;16.20;9.23;;;11.50;96.20;;;;;;4977840;28;20214;-89
2022/10/04 06:08:07;;;;;;;22.93;10.30;;;11.40;97.70;;;;;;5003123;28;20195;-90
2022/10/04 06:11:01;;;;;;;15.97;9.67;;;11.50;98.80;;;;;;4976819;28;20175;-92
2022/10/04 06:14:16;;;;;;;16.63;8.73;;;11.50;99.40;;;;;;4980752;28;20175;-90
2022/10/04 06:17:19;;;;;;;16.17;8.80;;;11.60;99.20;;;;;;4995768;28;20270;-91
2022/10/04 06:20:09;;;;;;;14.53;8.37;;;11.70;98.40;;;;;;5014100;28;20266;-87
2022/10/04 06:22:56;;;;;;;13.03;9.03;;;11.80;97.90;;;;;;4995516;28;20258;-88
2022/10/04 06:25:28;;;;;;;15.83;8.27;;;11.90;96.80;;;;;;5000355;28;20183;-91
2022/10/04 06:28:19;;;;;;;16.53;9.50;;;11.90;95.90;;;;;;4998238;28;20186;-91
2022/10/04 06:31:23;;;;;;;11.07;8.20;;;11.80;95.20;;;;;;5000802;28;20164;-89
2022/10/04 06:34:23;;;;;;;13.60;7.77;;;11.90;94.50;;;;;;5021079;28;20211;-90
2022/10/04 06:37:04;;;;;;;15.43;9.07;;;12.10;92.60;;;;;;4999527;28;20183;-88
2022/10/04 06:43:03;;;;;;;13.50;8.37;;;12.10;91.30;;;;;;4981462;28;20194;-90
2022/10/04 06:45:49;;;;;;;14.67;7.80;;;12.20;91.00;;;;;;4983066;28;20199;-89
2022/10/04 06:48:23;;;;;;;15.23;8.27;;;12.20;86.90;;;;;;4981209;28;20199;-89
2022/10/04 06:51:08;;;;;;;12.83;7.40;;;12.30;81.80;;;;;;4978975;28;20186;-89
2022/10/04 06:54:02;;;;;;;13.77;8.20;;;12.10;83.90;;;;;;4978585;28;20176;-91
2022/10/04 06:57:03;;;;;;;13.63;7.97;;;12.10;85.70;;;;;;4979564;28;20177;-90
2022/10/04 06:59:44;;;;;;;14.97;8.03;;;12.00;87.00;;;;;;4980904;28;20194;-90
2022/10/04 07:02:22;;;;;;;15.03;8.50;;;11.90;89.90;;;;;;4983279;28;20662;-88
2022/10/04 07:05:19;;;;;;;14.37;8.67;;;12.00;90.90;;;;;;4989443;28;20182;-91
2022/10/04 07:08:05;;;;;;;23.87;9.63;;;12.00;90.70;;;;;;4982992;28;20207;-89
2022/10/04 07:10:54;;;;;;;16.97;8.97;;;12.00;90.60;;;;;;4979204;28;20207;-88
2022/10/04 07:13:33;;;;;;;18.17;8.73;;;12.10;90.50;;;;;;4980036;28;20204;-88
2022/10/04 07:16:16;;;;;;;16.40;8.33;;;12.30;89.70;;;;;;4982651;28;20215;-90
2022/10/04 07:19:00;;;;;;;15.20;8.73;;;12.30;86.90;;;;;;4978370;28;20184;-91
2022/10/04 07:21:38;;;;;;;13.97;8.20;;;12.40;83.10;;;;;;4979944;28;20179;-88
2022/10/04 07:24:11;;;;;;;19.33;8.13;;;12.80;76.40;;;;;;4978295;28;20266;-87
2022/10/04 07:26:46;;;;;;;18.10;8.97;;;12.70;68.60;;;;;;4981137;28;20246;-89
2022/10/04 07:29:27;;;;;;;13.27;7.00;;;12.70;65.40;;;;;;4981467;28;20645;-91
2022/10/04 07:32:05;;;;;;;15.90;7.67;;;12.60;63.60;;;;;;4981640;28;20544;-89
2022/10/04 07:35:08;;;;;;;13.33;7.40;;;12.60;66.50;;;;;;4983619;28;20289;-88
2022/10/04 07:37:59;;;;;;;13.40;6.90;;;12.60;66.90;;;;;;4982607;28;20603;-89
2022/10/04 07:40:34;;;;;;;10.87;6.83;;;12.70;65.90;;;;;;4979483;28;20732;-89
2022/10/04 07:43:12;;;;;;;13.37;7.57;;;12.60;65.40;;;;;;4984769;28;20221;-89
2022/10/04 07:45:40;;;;;;;14.90;7.60;;;12.70;67.50;;;;;;4997257;28;20188;-88
2022/10/04 07:48:22;;;;;;;14.80;7.40;;;12.80;67.40;;;;;;4981957;28;20184;-86
2022/10/04 07:51:17;;;;;;;13.53;7.43;;;12.90;67.50;;;;;;4999024;28;20252;-89
2022/10/04 07:53:57;;;;;;;15.97;7.63;;;13.10;65.00;;;;;;5000103;28;20190;-89
2022/10/04 07:56:44;;;;;;;16.27;7.40;;;13.20;56.30;;;;;;5000047;28;20181;-89
2022/10/04 07:59:42;;;;;;;10.37;7.10;;;13.30;54.40;;;;;;4999441;28;20164;-89
2022/10/04 08:02:30;;;;;;;13.57;8.13;;;13.30;53.50;;;;;;4999261;28;20176;-89
2022/10/04 08:05:34;;;;;;;12.30;7.40;;;13.50;51.00;;;;;;4998905;28;20168;-89
2022/10/04 08:08:28;;;;;;;14.30;8.33;;;13.60;46.70;;;;;;4998978;28;20196;-88
2022/10/04 08:11:20;;;;;;;15.00;7.63;;;13.70;45.30;;;;;;4993392;28;20176;-88
2022/10/04 08:14:24;;;;;;;15.80;8.97;;;13.80;43.40;;;;;;4986353;28;20176;-90
2022/10/04 08:20:21;;;;;;;15.90;9.47;;;13.60;38.40;;;;;;4983019;28;20224;-92
2022/10/04 08:23:34;;;;;;;15.83;9.07;;;13.50;39.70;;;;;;4977561;28;20274;-87
2022/10/04 08:26:19;;;;;;;16.57;9.77;;;13.60;42.10;;;;;;4977455;28;20177;-89
2022/10/04 08:32:40;;;;;;;17.87;10.50;;;13.80;45.90;;;;;;4989426;28;20218;-88
2022/10/04 08:35:33;;;;;;;15.83;9.37;;;13.90;40.90;;;;;;4978193;28;20278;-88
2022/10/04 08:38:20;;;;;;;12.47;8.23;;;14.10;39.10;;;;;;4981330;28;20185;-89
2022/10/04 08:41:04;;;;;;;19.00;8.67;;;14.10;39.00;;;;;;4980709;28;20205;-89
2022/10/04 08:43:36;;;;;;;16.47;8.37;;;14.20;35.70;;;;;;4984055;28;20197;-90
2022/10/04 08:46:39;;;;;;;13.00;8.43;;;14.40;31.40;;;;;;4986669;28;20173;-88
2022/10/04 08:49:43;;;;;;;15.87;7.70;;;14.40;27.20;;;;;;4983502;28;20240;-89
2022/10/04 08:52:17;;;;;;;14.60;7.90;;;14.30;29.30;;;;;;4983273;28;20232;-89
2022/10/04 08:54:53;;;;;;;13.33;8.23;;;14.40;29.50;;;;;;4993250;28;20200;-87
2022/10/04 08:57:37;;;;;;;16.73;8.07;;;14.50;25.90;;;;;;4997875;28;20165;-86
2022/10/04 09:00:29;;;;;;;14.87;7.77;;;14.60;25.30;;;;;;4993440;28;20184;-91
2022/10/04 09:03:35;;;;;;;12.67;7.80;;;14.80;20.90;;;;;;4992867;28;20158;-86
2022/10/04 09:06:23;;;;;;;12.20;7.63;;;15.00;14.00;;;;;;4995048;28;20178;-88
2022/10/04 09:09:19;;;;;;;14.73;7.77;;;15.10;9.30;;;;;;4987742;28;20161;-91
2022/10/04 09:12:20;;;;;;;14.33;7.87;;;15.10;9.50;;;;;;4979886;28;20191;-90
2022/10/04 09:15:29;;;;;;;15.87;7.83;;;15.20;8.60;;;;;;4977122;28;20210;-89
2022/10/04 09:18:01;;;;;;;11.03;7.93;;;15.30;2.60;;;;;;4985045;28;20611;-90
2022/10/04 09:21:00;;;;;;;13.93;7.30;;;15.40;2.10;;;;;;4988703;28;20175;-91
2022/10/04 09:23:36;;;;;;;11.57;6.30;;;15.40;2.60;;;;;;4977463;28;20187;-90
2022/10/04 09:26:23;;;;;;;13.87;7.13;;;15.50;1.00;;;;;;4977920;28;20181;-91
2022/10/04 09:29:10;;;;;;;13.17;6.73;;;15.60;1.00;;;;;;4977009;28;20180;-90
2022/10/04 09:31:46;;;;;;;11.40;6.47;;;15.70;1.00;;;;;;4976315;28;20197;-89
2022/10/04 09:34:22;;;;;;;11.90;6.47;;;15.90;1.00;;;;;;4977728;28;20215;-91
2022/10/04 09:37:17;;;;;;;11.53;6.53;;;16.10;1.00;;;;;;4985473;28;20183;-89
2022/10/04 09:39:59;;;;;;;10.97;6.50;;;16.20;1.00;;;;;;4979406;28;20274;-91
2022/10/04 09:42:33;;;;;;;13.87;6.90;;;16.30;1.00;;;;;;4976949;28;20497;-88
2022/10/04 09:45:14;;;;;;;11.20;6.10;;;16.20;1.00;;;;;;4976353;28;20219;-89
2022/10/04 09:47:45;;;;;;;16.77;6.60;;;16.20;1.00;;;;;;4979511;28;20584;-90
2022/10/04 09:50:50;;;;;;;11.67;6.07;;;16.20;1.00;;;;;;4978328;28;20178;-90
2022/10/04 09:53:41;;;;;;;10.20;6.20;;;16.30;1.00;;;;;;4979181;28;20501;-89
2022/10/04 09:56:31;;;;;;;12.93;6.00;;;16.30;1.00;;;;;;4976375;28;20300;-89
2022/10/04 09:59:17;;;;;;;10.47;6.27;;;16.30;1.00;;;;;;4992891;28;20184;-87
2022/10/04 10:01:57;;;;;;;9.67;5.90;;;16.30;1.00;;;;;;4979985;28;20233;-89
2022/10/04 10:04:48;;;;;;;12.93;6.63;;;16.30;1.00;;;;;;4978945;28;20194;-88
2022/10/04 10:07:33;;;;;;;10.93;6.50;;;16.40;1.00;;;;;;4989868;28;20167;-89
2022/10/04 10:13:50;;;;;;;12.57;6.80;;;16.30;1.00;;;;;;4996758;28;20183;-89
2022/10/04 10:16:44;;;;;;;11.47;6.43;;;16.40;1.00;;;;;;4993193;28;20207;-89
2022/10/04 10:19:14;;;;;;;13.90;6.90;;;16.60;1.00;;;;;;4986252;28;20239;-89
2022/10/04 10:22:00;;;;;;;13.57;6.60;;;16.80;1.00;;;;;;4991604;28;20172;-90
2022/10/04 10:28:17;;;;;;;15.90;5.60;;;17.00;1.00;;;;;;4980388;28;20228;-89
2022/10/04 10:30:55;;;;;;;13.53;6.03;;;16.90;1.00;;;;;;4977355;28;20573;-89
2022/10/04 10:33:32;;;;;;;10.30;5.83;;;17.00;1.00;;;;;;4976634;28;20628;-89
2022/10/04 10:36:16;;;;;;;13.10;5.87;;;17.20;1.00;;;;;;4978784;28;20222;-88
2022/10/04 10:38:49;;;;;;;10.73;6.33;;;17.30;1.00;;;;;;4989291;28;20176;-89
2022/10/04 10:41:39;;;;;;;12.20;5.80;;;17.40;1.00;;;;;;4991995;28;20227;-89
2022/10/04 10:44:20;;;;;;;11.37;5.50;;;17.50;1.00;;;;;;4990569;28;20183;-87
2022/10/04 10:46:53;;;;;;;10.23;5.33;;;17.50;1.00;;;;;;4994991;28;20180;-88
2022/10/04 10:49:51;;;;;;;12.13;6.07;;;17.50;1.00;;;;;;4998902;28;20251;-88
2022/10/04 10:52:38;;;;;;;13.30;5.90;;;17.70;1.00;;;;;;4981260;28;20254;-90
2022/10/04 10:55:28;;;;;;;10.47;5.20;;;17.70;1.00;;;;;;4980429;28;20206;-89
2022/10/04 10:58:27;;;;;;;11.43;5.53;;;17.90;1.00;;;;;;4982393;28;20175;-89
2022/10/04 11:01:30;;;;;;;9.57;5.50;;;17.90;1.00;;;;;;4981382;28;20196;-90
2022/10/04 11:04:15;;;;;;;13.03;5.70;;;17.80;1.00;;;;;;4982322;28;20181;-90
2022/10/04 11:06:56;;;;;;;11.40;5.37;;;17.70;1.00;;;;;;4980957;28;20666;-88
2022/10/04 11:09:50;;;;;;;10.27;5.93;;;17.70;1.00;;;;;;4980973;28;20176;-91
2022/10/04 11:12:47;;;;;;;9.80;5.53;;;17.90;1.00;;;;;;4981597;28;20196;-91
2022/10/04 11:15:41;;;;;;;9.07;5.53;;;18.00;1.00;;;;;;4980442;28;20220;-92
2022/10/04 11:18:44;;;;;;;10.67;5.40;;;18.10;1.00;;;;;;4979143;28;20207;-92
2022/10/04 11:21:26;;;;;;;8.53;5.70;;;18.00;1.00;;;;;;4979085;28;20207;-89
2022/10/04 11:24:31;;;;;;;15.40;5.53;;;17.90;1.00;;;;;;4980541;28;20163;-90
2022/10/04 11:27:27;;;;;;;11.50;5.63;;;17.90;1.00;;;;;;4979801;28;20220;-91
2022/10/04 11:30:07;;;;;;;11.10;5.43;;;18.00;1.00;;;;;;4979663;28;20184;-90
2022/10/04 11:32:44;;;;;;;10.37;5.27;;;18.00;1.00;;;;;;4982081;28;20176;-89
2022/10/04 11:35:39;;;;;;;12.13;6.57;;;18.10;1.00;;;;;;4979576;28;20216;-90
2022/10/04 11:38:32;;;;;;;11.30;5.43;;;18.20;1.00;;;;;;4980174;28;20183;-89
2022/10/04 11:41:28;;;;;;;8.30;5.80;;;18.30;1.00;;;;;;4978226;28;20290;-90
2022/10/04 11:44:15;;;;;;;10.37;5.50;;;18.50;1.00;;;;;;4981195;28;20192;-89
2022/10/04 11:47:20;;;;;;;10.23;5.13;;;18.50;1.00;;;;;;4979940;28;20218;-89
2022/10/04 11:49:56;;;;;;;11.33;5.30;;;18.60;1.00;;;;;;4965390;28;20709;-91
2022/10/04 11:52:31;;;;;;;9.67;5.23;;;18.50;1.00;;;;;;4984559;28;20184;-90
2022/10/04 11:55:25;;;;;;;15.63;5.30;;;18.40;1.00;;;;;;4994001;28;20390;-90
2022/10/04 11:57:56;;;;;;;10.33;4.73;;;18.40;1.00;;;;;;4995105;28;20202;-88
2022/10/04 12:00:24;;;;;;;8.80;5.13;;;18.40;1.00;;;;;;4992952;28;20171;-87
2022/10/04 12:03:31;;;;;;;10.80;4.97;;;18.60;1.00;;;;;;4984881;28;20168;-92
2022/10/04 12:06:05;;;;;;;8.03;4.57;;;18.60;1.00;;;;;;4983906;28;20202;-89
2022/10/04 12:08:50;;;;;;;11.53;5.17;;;18.80;1.00;;;;;;4986854;28;20251;-88
2022/10/04 12:15:16;;;;;;;9.03;4.40;;;18.90;1.00;;;;;;4974134;29;20285;-86
2022/10/04 12:17:47;;;;;;;7.97;4.60;;;18.90;1.00;;;;;;5008333;28;20184;-89
2022/10/04 12:20:26;;;;;;;11.67;4.80;;;18.90;1.00;;;;;;5007070;28;20199;-90
2022/10/04 12:22:55;;;;;;;10.00;4.73;;;18.90;1.00;;;;;;4985327;28;20180;-85
2022/10/04 12:25:32;;;;;;;8.67;4.40;;;18.90;1.00;;;;;;5004570;28;20185;-87
2022/10/04 12:27:58;;;;;;;6.70;4.50;;;18.90;1.00;;;;;;4991481;28;20197;-85
2022/10/04 12:31:00;;;;;;;8.97;4.53;;;18.90;1.00;;;;;;4997252;28;20318;-90
2022/10/04 12:33:33;;;;;;;8.40;4.10;;;19.10;1.00;;;;;;4982459;28;20719;-89
2022/10/04 12:36:36;;;;;;;7.13;4.00;;;19.30;1.00;;;;;;4978470;28;20289;-88
2022/10/04 12:39:05;;;;;;;9.73;4.87;;;19.40;1.00;;;;;;4978671;28;20207;-90
2022/10/04 12:41:33;;;;;;;10.40;4.50;;;19.40;1.00;;;;;;4979755;28;20219;-90
2022/10/04 12:44:02;;;;;;;8.87;4.80;;;19.40;1.00;;;;;;4977110;28;20219;-89
2022/10/04 12:46:31;;;;;;;9.43;4.83;;;19.50;1.00;;;;;;4977904;28;20234;-90
2022/10/04 12:49:15;;;;;;;12.27;4.70;;;19.40;1.00;;;;;;4978374;28;20204;-91
2022/10/04 12:52:08;;;;;;;7.53;4.33;;;19.40;1.00;;;;;;4980535;28;20247;-89
2022/10/04 12:54:56;;;;;;;8.87;4.97;;;19.30;1.00;;;;;;4993581;28;20238;-89
2022/10/04 12:58:04;;;;;;;10.07;4.30;;;19.30;1.00;;;;;;4997721;28;20166;-90
2022/10/04 13:00:36;;;;;;;8.60;4.60;;;19.30;1.00;;;;;;5031437;28;20174;-88
2022/10/04 13:03:42;;;;;;;10.03;4.50;;;19.40;1.00;;;;;;5048149;28;20172;-91
2022/10/04 13:07:04;;;;;;;7.77;3.87;;;19.30;1.00;;;;;;5015405;28;20215;-87
2022/10/04 13:10:01;;;;;;;6.93;4.30;;;19.30;1.00;;;;;;4988830;28;20663;-90
2022/10/04 13:12:40;;;;;;;7.13;3.97;;;19.50;1.00;;;;;;4990421;28;20270;-89
2022/10/04 13:15:28;;;;;;;11.87;4.50;;;19.70;1.00;;;;;;4960313;28;20225;-90
2022/10/04 13:18:11;;;;;;;12.47;4.47;;;19.80;1.00;;;;;;4975267;28;20174;-88
2022/10/04 13:21:02;;;;;;;14.93;4.67;;;19.90;1.00;;;;;;5013887;28;20232;-88
2022/10/04 13:23:58;;;;;;;7.97;4.23;;;19.90;1.00;;;;;;4979930;28;20177;-90
2022/10/04 13:26:47;;;;;;;7.40;3.80;;;19.80;1.00;;;;;;4990945;28;20181;-89
2022/10/04 13:29:23;;;;;;;6.53;3.53;;;19.80;1.00;;;;;;4996312;28;20223;-88
2022/10/04 13:32:16;;;;;;;9.50;3.33;;;19.90;1.00;;;;;;4996250;28;20169;-90
2022/10/04 13:34:59;;;;;;;8.70;3.17;;;20.10;99.90;;;;;;5008144;28;20232;-90
2022/10/04 13:38:03;;;;;;;15.47;4.17;;;20.30;99.90;;;;;;4971350;28;20202;-88
2022/10/04 13:40:32;;;;;;;6.43;3.10;;;20.20;99.90;;;;;;4974181;28;20232;-90
2022/10/04 13:43:07;;;;;;;6.20;2.80;;;20.10;99.90;;;;;;4992551;28;20186;-90
2022/10/04 13:46:07;;;;;;;7.90;2.93;;;20.10;99.90;;;;;;4963112;28;20192;-91
2022/10/04 13:49:08;;;;;;;5.90;2.90;;;20.10;99.90;;;;;;4996716;28;20178;-89
2022/10/04 13:58:21;;;;;;;6.50;3.27;;;20.30;99.90;;;;;;4982177;28;20229;-87
2022/10/04 14:01:37;;;;;;;11.37;3.57;;;20.50;99.90;;;;;;5008395;28;20227;-87
2022/10/04 14:04:22;;;;;;;9.83;3.00;;;20.40;99.90;;;;;;5016050;28;20169;-88
2022/10/04 14:06:51;;;;;;;6.97;3.00;;;20.60;99.90;;;;;;5008183;28;20157;-87
2022/10/04 14:09:26;;;;;;;4.47;2.87;;;20.70;99.90;;;;;;5000267;28;20246;-87
2022/10/04 14:12:24;;;;;;;4.83;3.00;;;20.60;99.90;;;;;;4989720;28;20207;-87
2022/10/04 14:15:29;;;;;;;6.30;2.80;;;20.60;99.90;;;;;;4976711;28;20257;-87
2022/10/04 14:18:28;;;;;;;6.67;2.80;;;20.50;99.90;;;;;;4992204;28;20277;-85
2022/10/04 14:21:30;;;;;;;8.77;2.80;;;20.50;99.90;;;;;;4994217;28;20183;-87
2022/10/04 14:24:45;;;;;;;7.93;2.77;;;20.60;99.90;;;;;;5011055;28;20185;-87